createdAt,value
2023-01-21T00:06:15.367Z,9.10
2023-01-21T00:16:19.123Z,8.80
2023-01-21T00:26:23.314Z,8.50
2023-01-21T00:36:29.997Z,8.10
2023-01-21T00:46:34.153Z,8.50
2023-01-21T00:56:37.910Z,8.00
2023-01-21T01:06:41.759Z,8.00
2023-01-21T01:16:47.175Z,9.10
2023-01-21T01:26:50.782Z,9.40
2023-01-21T01:36:54.486Z,9.10
2023-01-21T01:47:03.529Z,9.60
2023-01-21T01:57:10.658Z,10.80
2023-01-21T02:07:16.919Z,10.50
2023-01-21T02:17:38.933Z,11.10
2023-01-21T02:28:27.343Z,11.70
2023-01-21T02:39:12.604Z,12.60
2023-01-21T02:49:45.464Z,13.50
2023-01-21T02:59:53.752Z,13.80
2023-01-21T03:10:06.935Z,12.60
2023-01-21T03:20:32.403Z,12.50
2023-01-21T03:30:40.774Z,12.40
2023-01-21T03:41:05.489Z,11.60
2023-01-21T03:51:15.416Z,10.80
2023-01-21T04:01:19.626Z,10.50
2023-01-21T04:11:23.482Z,10.40
2023-01-21T04:21:27.169Z,11.60
2023-01-21T04:31:30.968Z,10.50
2023-01-21T04:41:34.871Z,9.80
2023-01-21T04:51:39.702Z,9.70
2023-01-21T05:01:43.293Z,10.10
2023-01-21T05:11:47.588Z,9.50
2023-01-21T05:21:51.367Z,9.10
2023-01-21T05:31:55.078Z,8.40
2023-01-21T05:41:58.917Z,7.90
2023-01-21T05:52:02.651Z,8.00
2023-01-21T06:02:08.031Z,8.10
2023-01-21T06:12:13.483Z,7.80
2023-01-21T06:22:18.951Z,7.80
2023-01-21T06:32:23.188Z,7.60
2023-01-21T06:42:27.114Z,6.70
2023-01-21T06:52:32.878Z,7.50
2023-01-21T07:02:39.568Z,6.90
2023-01-21T07:12:43.314Z,7.50
2023-01-21T07:22:46.939Z,7.80
2023-01-21T07:32:50.918Z,6.20
2023-01-21T07:42:57.681Z,6.20
2023-01-21T07:53:02.337Z,5.70
2023-01-21T08:03:06.322Z,6.00
2023-01-21T08:13:10.110Z,6.60
2023-01-21T08:23:38.625Z,5.50
2023-01-21T08:33:44.676Z,4.80
2023-01-21T08:43:50.688Z,3.80
2023-01-21T08:53:55.521Z,3.30
2023-01-21T09:04:01.635Z,3.50
2023-01-21T09:14:05.353Z,2.80
2023-01-21T09:24:10.650Z,2.10
2023-01-21T09:34:14.749Z,1.80
2023-01-21T09:44:35.110Z,1.50
2023-01-21T09:54:42.478Z,2.70
2023-01-21T10:04:54.312Z,3.00
2023-01-21T10:15:07.204Z,1.50
2023-01-21T10:25:18.910Z,1.90
2023-01-21T10:35:41.845Z,2.40
2023-01-21T10:46:05.455Z,4.00
2023-01-21T10:56:29.468Z,3.70
2023-01-21T11:06:35.650Z,4.70
2023-01-21T11:16:53.023Z,3.30
2023-01-21T11:27:01.469Z,3.60
2023-01-21T11:37:26.849Z,4.00
2023-01-21T11:47:54.111Z,3.80
2023-01-21T11:58:03.689Z,4.20
2023-01-21T12:08:41.802Z,3.90
2023-01-21T12:19:07.005Z,3.30
2023-01-21T12:29:40.348Z,4.80
2023-01-21T12:40:02.910Z,7.70
2023-01-21T12:50:30.082Z,5.30
2023-01-21T13:00:41.815Z,5.00
2023-01-21T13:10:52.993Z,5.80
2023-01-21T13:21:15.393Z,5.20
2023-01-21T13:31:47.756Z,6.30
2023-01-21T13:42:39.015Z,5.80
2023-01-21T13:53:16.594Z,6.20
2023-01-21T14:03:52.509Z,6.10
2023-01-21T14:14:17.628Z,6.10
2023-01-21T14:24:38.485Z,6.90
2023-01-21T14:35:15.481Z,13.90
2023-01-21T14:45:56.096Z,18.70
2023-01-21T14:56:21.996Z,7.90
2023-01-21T15:06:47.466Z,6.50
2023-01-21T15:18:06.943Z,12.80
2023-01-21T15:28:40.664Z,6.10
2023-01-21T15:38:44.465Z,7.10
2023-01-21T15:49:17.089Z,7.00
2023-01-21T15:59:36.108Z,7.00
2023-01-21T16:10:03.963Z,7.70
2023-01-21T16:20:11.671Z,7.40
2023-01-21T16:30:19.762Z,7.80
2023-01-21T16:40:30.759Z,7.30
2023-01-21T16:50:34.484Z,7.90
2023-01-21T17:00:38.230Z,9.40
2023-01-21T17:11:08.205Z,6.60
2023-01-21T17:21:49.950Z,9.90
2023-01-21T17:32:01.496Z,11.50
2023-01-21T17:42:05.446Z,10.70
2023-01-21T17:52:22.732Z,6.30
2023-01-21T18:02:26.615Z,6.30
2023-01-21T18:12:30.754Z,6.10
2023-01-21T18:22:36.221Z,7.40
2023-01-21T18:32:42.550Z,7.70
2023-01-21T18:42:47.106Z,7.30
2023-01-21T18:52:51.095Z,7.90
2023-01-21T19:02:56.887Z,8.90
2023-01-21T19:13:00.846Z,9.40
2023-01-21T19:23:07.455Z,10.50
2023-01-21T19:33:11.577Z,12.20
2023-01-21T19:43:18.169Z,9.60
2023-01-21T19:53:23.306Z,9.80
2023-01-21T20:03:29.015Z,13.20
2023-01-21T20:13:37.115Z,10.40
2023-01-21T20:23:40.985Z,9.30
2023-01-21T20:33:47.154Z,9.20
2023-01-21T20:43:51.108Z,11.60
2023-01-21T20:53:56.499Z,8.90
2023-01-21T21:04:01.285Z,9.50
2023-01-21T21:14:05.073Z,9.50
2023-01-21T21:24:17.516Z,9.90
2023-01-21T21:34:27.768Z,9.20
2023-01-21T21:44:42.875Z,8.80
2023-01-21T21:54:55.555Z,9.20
2023-01-21T22:04:59.176Z,10.60
2023-01-21T22:15:04.156Z,10.10
2023-01-21T22:25:12.133Z,10.20
2023-01-21T22:35:16.130Z,9.70
2023-01-21T22:45:22.038Z,8.80
2023-01-21T22:55:26.058Z,8.70
2023-01-21T23:05:31.722Z,7.80
2023-01-21T23:15:43.464Z,9.40
2023-01-21T23:25:58.680Z,14.10
2023-01-21T23:36:13.431Z,8.00
2023-01-21T23:46:20.693Z,6.80
2023-01-21T23:56:26.690Z,7.10
